Airfield :
LOGIN :

Register | Disclaimer

   EN    FR    IT 

 










Legend :    VFR   Marginal VFR   IFR   Intensive IFR   Very Intensive IFR
Visi :
Ceiling :
>= 8 km
>= 3000ft
5 to 8 km
1000 to 3000 ft
1500m to 5 km
500 to 1000 ft
800 to 1500m
200 to 500 ft
< 800m
< 200 ft
Symbols :   Thunderstorms  Fog  Heavy snow  Heavy precipitations  Wind > 20 kt
SIGMETs :     Misc.  Thunderstorms  Icing  Turbulence  Mountain Waves  Volcanic Ashes







- Airport Elevation : 433 ft
- Download approach charts


LFOC - Chateaudun

CURRENT METAR :
  • 141700Z AUTO 29011KT 260V320 CAVOK 24/11 Q1020

EXPIRED METARs :
  • 141630Z AUTO 28010KT CAVOK 24/11 Q1020
  • 141600Z AUTO 29010KT 260V320 CAVOK 25/12 Q1020
  • 141530Z AUTO 30011KT CAVOK 25/12 Q1019 NOSIG
  • 141500Z AUTO 30010KT 260V320 CAVOK 24/11 Q1020 NOSIG
  • 141430Z AUTO 31007KT 270V360 CAVOK 24/12 Q1019 NOSIG

TAF TAF LFOC
Valid from the 14 at 15:00 until the 15 at 15:00 UTC


141400Z 1415/1515 27010KT CAVOK
BECMG 1501/1503 BKN013
PROB30
TEMPO 1503/1508 BKN005
BECMG 1508/1510 34006KT SCT035
No reported NOTAMs for that airfield.



MET'MAP, your aeronautical weather chart ! - Copyright ORBIFLY December 2007 - Disclaimer

ORBIFLY MET'MAP TEAM :

Programming & Development : Alexandra Zaïnal
Concept & Development : Baudouin d'Aumeries
Co-Development & Prog : Marc-Olivier Méhu
Technical & hardware support : Manuel Goepfert

Contact : metmap@orbifly.com




SOURCES & CREDITS :

   NOAA